Terminal Aerodrome Forecast
Issued by NWS

Home | Current Version | Previous Version | Text Only | Print | Product List | Glossary On
Versions: 1 2 3 4 5 6 7 8 9 10 11 12 13 14
901
FTUS46 KLOX 291224 AAB
TAFSBA
TAF AMD
KSBA 291224Z 2912/3012 VRB05KT 6SM BR OVC004
     FM291700 16006KT P6SM SKC
     FM292100 22008KT P6SM SKC
     FM300300 VRB05KT P6SM SKC
     FM301100 VRB05KT 6SM BR SCT012=

USA.gov is the U.S. government's official web portal to all federal, state and local government web resources and services.